sensor_id;sensor_type;location;lat;lon;timestamp;P1;durP1;ratioP1;P2;durP2;ratioP2
78774;SDS011;68119;43.398;3.676;2024-02-26T00:00:00;3.35;;;2.15;;
78774;SDS011;68119;43.398;3.676;2024-02-26T00:02:34;3.72;;;2.00;;
78774;SDS011;68119;43.398;3.676;2024-02-26T00:05:08;2.50;;;1.80;;
78774;SDS011;68119;43.398;3.676;2024-02-26T00:07:39;3.83;;;2.00;;
78774;SDS011;68119;43.398;3.676;2024-02-26T00:10:06;2.75;;;1.80;;
78774;SDS011;68119;43.398;3.676;2024-02-26T00:12:35;3.90;;;1.95;;
78774;SDS011;68119;43.398;3.676;2024-02-26T00:15:07;1.85;;;1.63;;
78774;SDS011;68119;43.398;3.676;2024-02-26T00:17:34;1.92;;;1.60;;
78774;SDS011;68119;43.398;3.676;2024-02-26T00:20:03;2.03;;;1.80;;
78774;SDS011;68119;43.398;3.676;2024-02-26T00:22:36;2.03;;;1.70;;
78774;SDS011;68119;43.398;3.676;2024-02-26T00:25:03;2.05;;;1.60;;
78774;SDS011;68119;43.398;3.676;2024-02-26T00:27:30;1.67;;;1.58;;
78774;SDS011;68119;43.398;3.676;2024-02-26T00:29:56;1.80;;;1.60;;
78774;SDS011;68119;43.398;3.676;2024-02-26T00:32:27;3.05;;;1.77;;
78774;SDS011;68119;43.398;3.676;2024-02-26T00:34:58;2.45;;;1.50;;
78774;SDS011;68119;43.398;3.676;2024-02-26T00:37:25;2.53;;;1.67;;
78774;SDS011;68119;43.398;3.676;2024-02-26T00:39:56;2.08;;;1.48;;
78774;SDS011;68119;43.398;3.676;2024-02-26T00:42:22;2.22;;;1.70;;
78774;SDS011;68119;43.398;3.676;2024-02-26T00:44:52;1.67;;;1.50;;
78774;SDS011;68119;43.398;3.676;2024-02-26T00:47:23;2.67;;;1.58;;
78774;SDS011;68119;43.398;3.676;2024-02-26T00:49:52;2.22;;;1.50;;
78774;SDS011;68119;43.398;3.676;2024-02-26T00:52:18;2.97;;;1.60;;
78774;SDS011;68119;43.398;3.676;2024-02-26T00:54:47;1.65;;;1.45;;
78774;SDS011;68119;43.398;3.676;2024-02-26T00:57:14;2.88;;;1.58;;
78774;SDS011;68119;43.398;3.676;2024-02-26T00:59:42;2.08;;;1.60;;
78774;SDS011;68119;43.398;3.676;2024-02-26T01:02:11;2.78;;;1.30;;
78774;SDS011;68119;43.398;3.676;2024-02-26T01:04:41;1.83;;;1.60;;
78774;SDS011;68119;43.398;3.676;2024-02-26T01:07:09;1.85;;;1.50;;
78774;SDS011;68119;43.398;3.676;2024-02-26T01:09:36;1.85;;;1.60;;
78774;SDS011;68119;43.398;3.676;2024-02-26T01:12:05;3.42;;;1.70;;
78774;SDS011;68119;43.398;3.676;2024-02-26T01:14:31;3.30;;;2.05;;
78774;SDS011;68119;43.398;3.676;2024-02-26T01:16:57;2.03;;;1.73;;
78774;SDS011;68119;43.398;3.676;2024-02-26T01:19:29;3.60;;;2.03;;
78774;SDS011;68119;43.398;3.676;2024-02-26T01:21:58;3.72;;;2.40;;
78774;SDS011;68119;43.398;3.676;2024-02-26T01:24:30;3.55;;;2.60;;
78774;SDS011;68119;43.398;3.676;2024-02-26T01:27:01;3.00;;;2.33;;
78774;SDS011;68119;43.398;3.676;2024-02-26T01:29:33;3.58;;;1.90;;
78774;SDS011;68119;43.398;3.676;2024-02-26T01:32:04;1.90;;;1.80;;
78774;SDS011;68119;43.398;3.676;2024-02-26T01:34:33;3.22;;;2.00;;
78774;SDS011;68119;43.398;3.676;2024-02-26T01:37:04;3.92;;;1.63;;
78774;SDS011;68119;43.398;3.676;2024-02-26T01:39:36;1.98;;;1.70;;
78774;SDS011;68119;43.398;3.676;2024-02-26T01:42:05;2.40;;;1.58;;
78774;SDS011;68119;43.398;3.676;2024-02-26T01:44:32;2.03;;;1.70;;
78774;SDS011;68119;43.398;3.676;2024-02-26T01:46:58;2.67;;;1.67;;
78774;SDS011;68119;43.398;3.676;2024-02-26T01:49:30;2.40;;;1.80;;
78774;SDS011;68119;43.398;3.676;2024-02-26T01:52:00;1.80;;;1.60;;
78774;SDS011;68119;43.398;3.676;2024-02-26T01:54:27;2.83;;;1.80;;
78774;SDS011;68119;43.398;3.676;2024-02-26T01:57:02;2.80;;;2.10;;
78774;SDS011;68119;43.398;3.676;2024-02-26T01:59:31;2.65;;;1.98;;
78774;SDS011;68119;43.398;3.676;2024-02-26T02:02:00;2.58;;;2.00;;
78774;SDS011;68119;43.398;3.676;2024-02-26T02:04:27;2.22;;;1.90;;
78774;SDS011;68119;43.398;3.676;2024-02-26T02:06:53;3.47;;;2.10;;
78774;SDS011;68119;43.398;3.676;2024-02-26T02:09:23;2.90;;;2.00;;
78774;SDS011;68119;43.398;3.676;2024-02-26T02:11:52;2.30;;;1.90;;
78774;SDS011;68119;43.398;3.676;2024-02-26T02:14:22;2.50;;;1.90;;
78774;SDS011;68119;43.398;3.676;2024-02-26T02:16:51;3.88;;;2.40;;
78774;SDS011;68119;43.398;3.676;2024-02-26T02:19:22;2.97;;;2.40;;
78774;SDS011;68119;43.398;3.676;2024-02-26T02:21:54;3.17;;;2.30;;
78774;SDS011;68119;43.398;3.676;2024-02-26T02:24:23;2.67;;;2.03;;
78774;SDS011;68119;43.398;3.676;2024-02-26T02:26:51;4.72;;;2.50;;
78774;SDS011;68119;43.398;3.676;2024-02-26T02:29:23;3.80;;;2.65;;
78774;SDS011;68119;43.398;3.676;2024-02-26T02:31:55;3.03;;;2.53;;
78774;SDS011;68119;43.398;3.676;2024-02-26T02:34:25;3.35;;;2.78;;
78774;SDS011;68119;43.398;3.676;2024-02-26T02:36:54;4.15;;;3.17;;
78774;SDS011;68119;43.398;3.676;2024-02-26T02:39:24;4.18;;;2.70;;
78774;SDS011;68119;43.398;3.676;2024-02-26T02:41:55;3.90;;;2.80;;
78774;SDS011;68119;43.398;3.676;2024-02-26T02:44:22;3.75;;;2.60;;
78774;SDS011;68119;43.398;3.676;2024-02-26T02:46:48;5.53;;;2.78;;
78774;SDS011;68119;43.398;3.676;2024-02-26T02:49:17;2.88;;;2.47;;
78774;SDS011;68119;43.398;3.676;2024-02-26T02:51:48;3.13;;;2.35;;
78774;SDS011;68119;43.398;3.676;2024-02-26T02:54:18;4.07;;;2.67;;
78774;SDS011;68119;43.398;3.676;2024-02-26T02:56:47;2.95;;;2.30;;
78774;SDS011;68119;43.398;3.676;2024-02-26T02:59:18;2.85;;;2.40;;
78774;SDS011;68119;43.398;3.676;2024-02-26T03:01:52;2.90;;;2.42;;
78774;SDS011;68119;43.398;3.676;2024-02-26T03:04:21;2.67;;;2.33;;
78774;SDS011;68119;43.398;3.676;2024-02-26T03:06:49;2.35;;;2.03;;
78774;SDS011;68119;43.398;3.676;2024-02-26T03:09:18;2.38;;;2.15;;
78774;SDS011;68119;43.398;3.676;2024-02-26T03:11:47;5.20;;;2.35;;
78774;SDS011;68119;43.398;3.676;2024-02-26T03:14:16;4.22;;;2.40;;
78774;SDS011;68119;43.398;3.676;2024-02-26T03:16:42;3.88;;;2.33;;
78774;SDS011;68119;43.398;3.676;2024-02-26T03:19:13;2.53;;;2.25;;
78774;SDS011;68119;43.398;3.676;2024-02-26T03:21:42;2.75;;;2.08;;
78774;SDS011;68119;43.398;3.676;2024-02-26T03:24:11;2.85;;;2.30;;
78774;SDS011;68119;43.398;3.676;2024-02-26T03:26:38;3.08;;;2.40;;
78774;SDS011;68119;43.398;3.676;2024-02-26T03:29:09;3.80;;;2.50;;
78774;SDS011;68119;43.398;3.676;2024-02-26T03:31:38;3.80;;;2.60;;
78774;SDS011;68119;43.398;3.676;2024-02-26T03:34:05;2.75;;;2.20;;
78774;SDS011;68119;43.398;3.676;2024-02-26T03:36:31;4.28;;;2.22;;
78774;SDS011;68119;43.398;3.676;2024-02-26T03:39:00;3.70;;;2.20;;
78774;SDS011;68119;43.398;3.676;2024-02-26T03:41:29;5.32;;;3.40;;
78774;SDS011;68119;43.398;3.676;2024-02-26T03:43:57;5.30;;;3.33;;
78774;SDS011;68119;43.398;3.676;2024-02-26T03:46:26;4.40;;;3.20;;
78774;SDS011;68119;43.398;3.676;2024-02-26T03:48:54;4.57;;;3.15;;
78774;SDS011;68119;43.398;3.676;2024-02-26T03:51:26;5.80;;;3.00;;
78774;SDS011;68119;43.398;3.676;2024-02-26T03:53:56;5.10;;;3.20;;
78774;SDS011;68119;43.398;3.676;2024-02-26T03:56:26;4.07;;;3.05;;
78774;SDS011;68119;43.398;3.676;2024-02-26T03:58:55;4.13;;;2.95;;
78774;SDS011;68119;43.398;3.676;2024-02-26T04:01:26;4.85;;;2.90;;
78774;SDS011;68119;43.398;3.676;2024-02-26T04:03:58;5.57;;;3.20;;
78774;SDS011;68119;43.398;3.676;2024-02-26T04:06:27;3.80;;;3.00;;
78774;SDS011;68119;43.398;3.676;2024-02-26T04:08:57;4.30;;;3.03;;
78774;SDS011;68119;43.398;3.676;2024-02-26T04:11:29;4.60;;;3.17;;
78774;SDS011;68119;43.398;3.676;2024-02-26T04:14:00;4.72;;;3.20;;
78774;SDS011;68119;43.398;3.676;2024-02-26T04:16:28;5.55;;;3.47;;
78774;SDS011;68119;43.398;3.676;2024-02-26T04:18:57;6.05;;;3.80;;
78774;SDS011;68119;43.398;3.676;2024-02-26T04:21:26;4.88;;;3.53;;
78774;SDS011;68119;43.398;3.676;2024-02-26T04:23:55;6.25;;;3.70;;
78774;SDS011;68119;43.398;3.676;2024-02-26T04:28:55;6.32;;;4.15;;
78774;SDS011;68119;43.398;3.676;2024-02-26T04:31:24;6.60;;;4.00;;
78774;SDS011;68119;43.398;3.676;2024-02-26T04:33:53;5.97;;;3.92;;
78774;SDS011;68119;43.398;3.676;2024-02-26T04:36:22;6.47;;;4.15;;
78774;SDS011;68119;43.398;3.676;2024-02-26T04:38:54;5.70;;;4.28;;
78774;SDS011;68119;43.398;3.676;2024-02-26T04:41:23;6.15;;;4.35;;
78774;SDS011;68119;43.398;3.676;2024-02-26T04:43:52;5.70;;;4.40;;
78774;SDS011;68119;43.398;3.676;2024-02-26T04:46:24;6.45;;;4.40;;
78774;SDS011;68119;43.398;3.676;2024-02-26T04:48:55;6.63;;;4.80;;
78774;SDS011;68119;43.398;3.676;2024-02-26T04:51:24;6.93;;;4.90;;
78774;SDS011;68119;43.398;3.676;2024-02-26T04:53:52;6.95;;;4.78;;
78774;SDS011;68119;43.398;3.676;2024-02-26T04:56:20;6.32;;;4.93;;
78774;SDS011;68119;43.398;3.676;2024-02-26T04:58:52;7.28;;;5.25;;
78774;SDS011;68119;43.398;3.676;2024-02-26T05:01:21;8.90;;;5.65;;
78774;SDS011;68119;43.398;3.676;2024-02-26T05:03:52;7.30;;;5.30;;
78774;SDS011;68119;43.398;3.676;2024-02-26T05:06:23;8.32;;;5.75;;
78774;SDS011;68119;43.398;3.676;2024-02-26T05:08:50;8.35;;;5.75;;
78774;SDS011;68119;43.398;3.676;2024-02-26T05:11:16;7.40;;;5.85;;
78774;SDS011;68119;43.398;3.676;2024-02-26T05:16:27;8.00;;;5.38;;
78774;SDS011;68119;43.398;3.676;2024-02-26T05:18:58;7.38;;;5.57;;
78774;SDS011;68119;43.398;3.676;2024-02-26T05:21:28;7.40;;;5.60;;
78774;SDS011;68119;43.398;3.676;2024-02-26T05:23:55;7.28;;;5.40;;
78774;SDS011;68119;43.398;3.676;2024-02-26T05:26:24;9.02;;;7.05;;
78774;SDS011;68119;43.398;3.676;2024-02-26T05:28:50;9.23;;;7.88;;
78774;SDS011;68119;43.398;3.676;2024-02-26T05:31:17;9.77;;;8.07;;
78774;SDS011;68119;43.398;3.676;2024-02-26T05:33:46;11.00;;;8.25;;
78774;SDS011;68119;43.398;3.676;2024-02-26T05:36:17;7.68;;;6.50;;
78774;SDS011;68119;43.398;3.676;2024-02-26T05:38:46;9.55;;;7.05;;
78774;SDS011;68119;43.398;3.676;2024-02-26T05:41:20;8.25;;;6.28;;
78774;SDS011;68119;43.398;3.676;2024-02-26T05:43:52;8.30;;;6.20;;
78774;SDS011;68119;43.398;3.676;2024-02-26T05:46:23;10.27;;;6.45;;
78774;SDS011;68119;43.398;3.676;2024-02-26T05:48:52;7.80;;;6.00;;
78774;SDS011;68119;43.398;3.676;2024-02-26T05:51:19;7.47;;;5.88;;
78774;SDS011;68119;43.398;3.676;2024-02-26T05:53:48;8.35;;;5.82;;
78774;SDS011;68119;43.398;3.676;2024-02-26T05:56:19;8.15;;;6.32;;
78774;SDS011;68119;43.398;3.676;2024-02-26T05:58:48;8.30;;;6.70;;
78774;SDS011;68119;43.398;3.676;2024-02-26T06:01:19;11.15;;;7.25;;
78774;SDS011;68119;43.398;3.676;2024-02-26T06:03:49;9.63;;;6.97;;
78774;SDS011;68119;43.398;3.676;2024-02-26T06:06:21;13.23;;;8.57;;
78774;SDS011;68119;43.398;3.676;2024-02-26T06:08:48;16.02;;;9.00;;
78774;SDS011;68119;43.398;3.676;2024-02-26T06:11:17;18.00;;;10.95;;
78774;SDS011;68119;43.398;3.676;2024-02-26T06:13:44;14.60;;;10.35;;
78774;SDS011;68119;43.398;3.676;2024-02-26T06:16:10;16.08;;;9.93;;
78774;SDS011;68119;43.398;3.676;2024-02-26T06:18:39;19.45;;;10.57;;
78774;SDS011;68119;43.398;3.676;2024-02-26T06:21:08;17.73;;;10.68;;
78774;SDS011;68119;43.398;3.676;2024-02-26T06:23:38;16.75;;;10.35;;
78774;SDS011;68119;43.398;3.676;2024-02-26T06:26:07;18.77;;;10.75;;
78774;SDS011;68119;43.398;3.676;2024-02-26T06:28:36;18.92;;;11.68;;
78774;SDS011;68119;43.398;3.676;2024-02-26T06:31:08;16.20;;;11.35;;
78774;SDS011;68119;43.398;3.676;2024-02-26T06:33:34;18.10;;;11.73;;
78774;SDS011;68119;43.398;3.676;2024-02-26T06:36:03;19.55;;;11.68;;
78774;SDS011;68119;43.398;3.676;2024-02-26T06:38:35;14.57;;;10.57;;
78774;SDS011;68119;43.398;3.676;2024-02-26T06:41:02;21.58;;;13.05;;
78774;SDS011;68119;43.398;3.676;2024-02-26T06:43:31;31.95;;;16.35;;
78774;SDS011;68119;43.398;3.676;2024-02-26T06:46:02;28.83;;;15.60;;
78774;SDS011;68119;43.398;3.676;2024-02-26T06:48:32;25.10;;;14.10;;
78774;SDS011;68119;43.398;3.676;2024-02-26T06:51:01;19.48;;;12.32;;
78774;SDS011;68119;43.398;3.676;2024-02-26T06:53:30;18.35;;;12.05;;
78774;SDS011;68119;43.398;3.676;2024-02-26T06:55:59;18.63;;;11.35;;
78774;SDS011;68119;43.398;3.676;2024-02-26T06:58:30;17.08;;;11.77;;
78774;SDS011;68119;43.398;3.676;2024-02-26T07:00:59;14.40;;;10.13;;
78774;SDS011;68119;43.398;3.676;2024-02-26T07:03:28;12.60;;;8.73;;
78774;SDS011;68119;43.398;3.676;2024-02-26T07:06:00;13.15;;;9.10;;
78774;SDS011;68119;43.398;3.676;2024-02-26T07:08:31;11.18;;;8.15;;
78774;SDS011;68119;43.398;3.676;2024-02-26T07:11:00;11.63;;;7.90;;
78774;SDS011;68119;43.398;3.676;2024-02-26T07:13:34;12.82;;;8.18;;
78774;SDS011;68119;43.398;3.676;2024-02-26T07:16:01;14.63;;;9.68;;
78774;SDS011;68119;43.398;3.676;2024-02-26T07:18:27;14.52;;;8.90;;
78774;SDS011;68119;43.398;3.676;2024-02-26T07:20:56;13.52;;;8.82;;
78774;SDS011;68119;43.398;3.676;2024-02-26T07:23:27;10.73;;;7.85;;
78774;SDS011;68119;43.398;3.676;2024-02-26T07:25:59;12.23;;;7.80;;
78774;SDS011;68119;43.398;3.676;2024-02-26T07:28:30;11.63;;;7.45;;
78774;SDS011;68119;43.398;3.676;2024-02-26T07:30:59;8.30;;;6.80;;
78774;SDS011;68119;43.398;3.676;2024-02-26T07:33:28;12.25;;;6.80;;
78774;SDS011;68119;43.398;3.676;2024-02-26T07:35:54;12.02;;;6.30;;
78774;SDS011;68119;43.398;3.676;2024-02-26T07:38:21;8.00;;;5.35;;
78774;SDS011;68119;43.398;3.676;2024-02-26T07:40:53;8.20;;;5.85;;
78774;SDS011;68119;43.398;3.676;2024-02-26T07:45:48;10.52;;;7.63;;
78774;SDS011;68119;43.398;3.676;2024-02-26T07:48:20;8.02;;;5.28;;
78774;SDS011;68119;43.398;3.676;2024-02-26T07:50:52;9.73;;;5.15;;
78774;SDS011;68119;43.398;3.676;2024-02-26T07:53:21;8.25;;;4.57;;
78774;SDS011;68119;43.398;3.676;2024-02-26T07:55:48;8.45;;;5.20;;
78774;SDS011;68119;43.398;3.676;2024-02-26T07:58:14;13.05;;;4.75;;
78774;SDS011;68119;43.398;3.676;2024-02-26T08:00:41;11.10;;;5.50;;
78774;SDS011;68119;43.398;3.676;2024-02-26T08:03:10;11.40;;;4.95;;
78774;SDS011;68119;43.398;3.676;2024-02-26T08:05:38;7.30;;;4.00;;
78774;SDS011;68119;43.398;3.676;2024-02-26T08:08:08;7.97;;;3.78;;
78774;SDS011;68119;43.398;3.676;2024-02-26T08:10:35;8.73;;;3.25;;
78774;SDS011;68119;43.398;3.676;2024-02-26T08:13:04;7.53;;;3.13;;
78774;SDS011;68119;43.398;3.676;2024-02-26T08:15:33;7.10;;;3.20;;
78774;SDS011;68119;43.398;3.676;2024-02-26T08:18:02;6.32;;;3.47;;
78774;SDS011;68119;43.398;3.676;2024-02-26T08:20:31;8.18;;;5.43;;
78774;SDS011;68119;43.398;3.676;2024-02-26T08:23:01;11.52;;;5.07;;
78774;SDS011;68119;43.398;3.676;2024-02-26T08:25:30;5.93;;;4.05;;
78774;SDS011;68119;43.398;3.676;2024-02-26T08:27:58;9.05;;;4.95;;
78774;SDS011;68119;43.398;3.676;2024-02-26T08:30:30;8.80;;;4.88;;
78774;SDS011;68119;43.398;3.676;2024-02-26T08:33:02;7.75;;;4.53;;
78774;SDS011;68119;43.398;3.676;2024-02-26T08:35:34;6.75;;;3.90;;
78774;SDS011;68119;43.398;3.676;2024-02-26T08:38:05;6.63;;;3.35;;
78774;SDS011;68119;43.398;3.676;2024-02-26T08:43:05;4.68;;;2.90;;
78774;SDS011;68119;43.398;3.676;2024-02-26T08:45:32;6.00;;;2.80;;
78774;SDS011;68119;43.398;3.676;2024-02-26T08:48:01;4.10;;;2.55;;
78774;SDS011;68119;43.398;3.676;2024-02-26T08:50:29;9.70;;;5.10;;
78774;SDS011;68119;43.398;3.676;2024-02-26T08:52:58;7.18;;;3.35;;
78774;SDS011;68119;43.398;3.676;2024-02-26T08:55:29;6.53;;;3.33;;
78774;SDS011;68119;43.398;3.676;2024-02-26T08:58:01;5.97;;;2.95;;
78774;SDS011;68119;43.398;3.676;2024-02-26T09:00:32;5.68;;;3.40;;
78774;SDS011;68119;43.398;3.676;2024-02-26T09:02:58;21.05;;;16.08;;
78774;SDS011;68119;43.398;3.676;2024-02-26T09:05:27;7.82;;;4.78;;
78774;SDS011;68119;43.398;3.676;2024-02-26T09:07:53;5.13;;;3.33;;
78774;SDS011;68119;43.398;3.676;2024-02-26T09:10:22;8.93;;;3.33;;
78774;SDS011;68119;43.398;3.676;2024-02-26T09:12:51;6.45;;;3.40;;
78774;SDS011;68119;43.398;3.676;2024-02-26T09:15:22;7.70;;;3.10;;
78774;SDS011;68119;43.398;3.676;2024-02-26T09:17:49;4.45;;;2.58;;
78774;SDS011;68119;43.398;3.676;2024-02-26T09:20:20;6.90;;;2.88;;
78774;SDS011;68119;43.398;3.676;2024-02-26T09:22:48;5.20;;;2.75;;
78774;SDS011;68119;43.398;3.676;2024-02-26T09:25:16;6.43;;;3.03;;
78774;SDS011;68119;43.398;3.676;2024-02-26T09:27:47;8.05;;;3.00;;
78774;SDS011;68119;43.398;3.676;2024-02-26T09:30:16;9.05;;;3.50;;
78774;SDS011;68119;43.398;3.676;2024-02-26T09:32:45;6.95;;;3.38;;
78774;SDS011;68119;43.398;3.676;2024-02-26T09:35:14;7.28;;;3.67;;
78774;SDS011;68119;43.398;3.676;2024-02-26T09:37:40;5.68;;;2.60;;
78774;SDS011;68119;43.398;3.676;2024-02-26T09:40:13;7.07;;;2.65;;
78774;SDS011;68119;43.398;3.676;2024-02-26T09:42:43;5.60;;;2.42;;
78774;SDS011;68119;43.398;3.676;2024-02-26T09:45:12;9.83;;;4.83;;
78774;SDS011;68119;43.398;3.676;2024-02-26T09:47:40;10.03;;;3.80;;
78774;SDS011;68119;43.398;3.676;2024-02-26T09:50:07;11.75;;;3.65;;
78774;SDS011;68119;43.398;3.676;2024-02-26T09:52:39;8.48;;;3.45;;
78774;SDS011;68119;43.398;3.676;2024-02-26T09:55:12;7.00;;;2.42;;
78774;SDS011;68119;43.398;3.676;2024-02-26T09:57:47;10.32;;;2.60;;
78774;SDS011;68119;43.398;3.676;2024-02-26T10:00:18;13.50;;;5.47;;
78774;SDS011;68119;43.398;3.676;2024-02-26T10:02:45;13.95;;;4.13;;
78774;SDS011;68119;43.398;3.676;2024-02-26T10:05:18;13.48;;;6.47;;
78774;SDS011;68119;43.398;3.676;2024-02-26T10:07:47;14.05;;;7.20;;
78774;SDS011;68119;43.398;3.676;2024-02-26T10:10:19;14.50;;;6.03;;
78774;SDS011;68119;43.398;3.676;2024-02-26T10:12:48;11.57;;;4.75;;
78774;SDS011;68119;43.398;3.676;2024-02-26T10:15:15;9.88;;;4.50;;
78774;SDS011;68119;43.398;3.676;2024-02-26T10:17:41;17.45;;;5.30;;
78774;SDS011;68119;43.398;3.676;2024-02-26T10:20:20;9.55;;;3.17;;
78774;SDS011;68119;43.398;3.676;2024-02-26T10:22:48;11.20;;;3.10;;
78774;SDS011;68119;43.398;3.676;2024-02-26T10:25:17;12.93;;;3.75;;
78774;SDS011;68119;43.398;3.676;2024-02-26T10:27:49;10.80;;;3.55;;
78774;SDS011;68119;43.398;3.676;2024-02-26T10:30:22;8.77;;;2.80;;
78774;SDS011;68119;43.398;3.676;2024-02-26T10:32:51;17.95;;;5.05;;
78774;SDS011;68119;43.398;3.676;2024-02-26T10:35:25;16.55;;;4.10;;
78774;SDS011;68119;43.398;3.676;2024-02-26T10:37:56;14.00;;;4.63;;
78774;SDS011;68119;43.398;3.676;2024-02-26T10:42:51;13.88;;;4.90;;
78774;SDS011;68119;43.398;3.676;2024-02-26T10:45:20;14.73;;;4.07;;
78774;SDS011;68119;43.398;3.676;2024-02-26T10:47:52;13.55;;;5.38;;
78774;SDS011;68119;43.398;3.676;2024-02-26T10:50:24;16.63;;;5.57;;
78774;SDS011;68119;43.398;3.676;2024-02-26T10:52:53;15.48;;;4.97;;
78774;SDS011;68119;43.398;3.676;2024-02-26T10:55:24;13.52;;;4.55;;
78774;SDS011;68119;43.398;3.676;2024-02-26T10:57:53;14.00;;;4.53;;
78774;SDS011;68119;43.398;3.676;2024-02-26T11:00:22;14.18;;;4.72;;
78774;SDS011;68119;43.398;3.676;2024-02-26T11:02:52;12.70;;;3.03;;
78774;SDS011;68119;43.398;3.676;2024-02-26T11:05:19;11.70;;;3.10;;
78774;SDS011;68119;43.398;3.676;2024-02-26T11:07:48;14.63;;;2.65;;
78774;SDS011;68119;43.398;3.676;2024-02-26T11:10:20;11.93;;;3.20;;
78774;SDS011;68119;43.398;3.676;2024-02-26T11:12:48;12.60;;;3.38;;
78774;SDS011;68119;43.398;3.676;2024-02-26T11:15:16;11.25;;;3.28;;
78774;SDS011;68119;43.398;3.676;2024-02-26T11:17:46;13.18;;;4.30;;
78774;SDS011;68119;43.398;3.676;2024-02-26T11:20:15;17.08;;;4.97;;
78774;SDS011;68119;43.398;3.676;2024-02-26T11:22:47;15.27;;;5.28;;
78774;SDS011;68119;43.398;3.676;2024-02-26T11:25:19;16.52;;;4.55;;
78774;SDS011;68119;43.398;3.676;2024-02-26T11:28:00;16.63;;;4.63;;
78774;SDS011;68119;43.398;3.676;2024-02-26T11:30:31;16.15;;;5.10;;
78774;SDS011;68119;43.398;3.676;2024-02-26T11:33:06;14.88;;;4.97;;
78774;SDS011;68119;43.398;3.676;2024-02-26T11:35:40;16.25;;;5.20;;
78774;SDS011;68119;43.398;3.676;2024-02-26T11:38:17;15.50;;;5.28;;
78774;SDS011;68119;43.398;3.676;2024-02-26T11:40:48;17.58;;;5.43;;
78774;SDS011;68119;43.398;3.676;2024-02-26T11:44:04;12.95;;;4.28;;
78774;SDS011;68119;43.398;3.676;2024-02-26T11:46:05;15.13;;;4.47;;
78774;SDS011;68119;43.398;3.676;2024-02-26T11:48:56;14.25;;;3.58;;
78774;SDS011;68119;43.398;3.676;2024-02-26T11:51:33;14.80;;;3.17;;
78774;SDS011;68119;43.398;3.676;2024-02-26T11:54:03;17.23;;;3.92;;
78774;SDS011;68119;43.398;3.676;2024-02-26T11:59:40;12.25;;;3.88;;
78774;SDS011;68119;43.398;3.676;2024-02-26T12:05:09;12.88;;;3.30;;
78774;SDS011;68119;43.398;3.676;2024-02-26T12:07:39;10.70;;;3.67;;
78774;SDS011;68119;43.398;3.676;2024-02-26T12:10:16;10.82;;;3.30;;
78774;SDS011;68119;43.398;3.676;2024-02-26T12:15:14;7.63;;;2.70;;
78774;SDS011;68119;43.398;3.676;2024-02-26T12:17:48;12.02;;;3.10;;
78774;SDS011;68119;43.398;3.676;2024-02-26T12:20:16;12.23;;;2.80;;
78774;SDS011;68119;43.398;3.676;2024-02-26T12:22:49;8.02;;;2.20;;
78774;SDS011;68119;43.398;3.676;2024-02-26T12:25:18;10.43;;;2.47;;
78774;SDS011;68119;43.398;3.676;2024-02-26T12:27:46;14.18;;;2.60;;
78774;SDS011;68119;43.398;3.676;2024-02-26T12:30:13;7.57;;;2.97;;
78774;SDS011;68119;43.398;3.676;2024-02-26T12:32:44;11.68;;;3.38;;
78774;SDS011;68119;43.398;3.676;2024-02-26T12:35:10;10.40;;;2.75;;
78774;SDS011;68119;43.398;3.676;2024-02-26T12:37:40;6.32;;;2.03;;
78774;SDS011;68119;43.398;3.676;2024-02-26T12:40:09;8.13;;;2.20;;
78774;SDS011;68119;43.398;3.676;2024-02-26T12:42:37;9.38;;;2.70;;
78774;SDS011;68119;43.398;3.676;2024-02-26T12:45:07;5.60;;;1.95;;
78774;SDS011;68119;43.398;3.676;2024-02-26T12:47:39;8.25;;;2.20;;
78774;SDS011;68119;43.398;3.676;2024-02-26T12:50:11;11.27;;;4.00;;
78774;SDS011;68119;43.398;3.676;2024-02-26T12:52:43;8.88;;;2.30;;
78774;SDS011;68119;43.398;3.676;2024-02-26T12:55:16;9.23;;;2.60;;
78774;SDS011;68119;43.398;3.676;2024-02-26T12:57:46;24.25;;;16.27;;
78774;SDS011;68119;43.398;3.676;2024-02-26T13:00:21;16.33;;;6.53;;
78774;SDS011;68119;43.398;3.676;2024-02-26T13:02:53;10.45;;;3.65;;
78774;SDS011;68119;43.398;3.676;2024-02-26T13:05:26;19.90;;;6.43;;
78774;SDS011;68119;43.398;3.676;2024-02-26T13:07:52;12.68;;;4.00;;
78774;SDS011;68119;43.398;3.676;2024-02-26T13:10:21;13.32;;;5.38;;
78774;SDS011;68119;43.398;3.676;2024-02-26T13:12:52;13.82;;;3.30;;
78774;SDS011;68119;43.398;3.676;2024-02-26T13:15:23;12.30;;;5.60;;
78774;SDS011;68119;43.398;3.676;2024-02-26T13:17:52;11.65;;;3.85;;
78774;SDS011;68119;43.398;3.676;2024-02-26T13:20:30;6.85;;;2.33;;
78774;SDS011;68119;43.398;3.676;2024-02-26T13:23:00;6.07;;;2.40;;
78774;SDS011;68119;43.398;3.676;2024-02-26T13:25:29;20.67;;;8.85;;
78774;SDS011;68119;43.398;3.676;2024-02-26T13:28:11;33.80;;;15.57;;
78774;SDS011;68119;43.398;3.676;2024-02-26T13:30:38;10.35;;;3.10;;
78774;SDS011;68119;43.398;3.676;2024-02-26T13:33:10;12.27;;;2.80;;
78774;SDS011;68119;43.398;3.676;2024-02-26T13:35:46;5.35;;;2.28;;
78774;SDS011;68119;43.398;3.676;2024-02-26T13:38:13;6.78;;;2.28;;
78774;SDS011;68119;43.398;3.676;2024-02-26T13:40:39;8.00;;;2.45;;
78774;SDS011;68119;43.398;3.676;2024-02-26T13:43:06;11.68;;;3.72;;
78774;SDS011;68119;43.398;3.676;2024-02-26T13:45:39;15.30;;;3.25;;
78774;SDS011;68119;43.398;3.676;2024-02-26T13:48:09;7.75;;;2.35;;
78774;SDS011;68119;43.398;3.676;2024-02-26T13:50:48;7.72;;;2.17;;
78774;SDS011;68119;43.398;3.676;2024-02-26T13:53:18;6.60;;;2.20;;
78774;SDS011;68119;43.398;3.676;2024-02-26T13:55:59;6.57;;;1.95;;
78774;SDS011;68119;43.398;3.676;2024-02-26T13:58:30;7.97;;;2.63;;
78774;SDS011;68119;43.398;3.676;2024-02-26T14:00:57;18.13;;;7.75;;
78774;SDS011;68119;43.398;3.676;2024-02-26T14:06:03;12.80;;;2.50;;
78774;SDS011;68119;43.398;3.676;2024-02-26T14:08:32;8.50;;;2.40;;
78774;SDS011;68119;43.398;3.676;2024-02-26T14:11:04;8.13;;;2.88;;
78774;SDS011;68119;43.398;3.676;2024-02-26T14:13:41;10.48;;;3.00;;
78774;SDS011;68119;43.398;3.676;2024-02-26T14:16:11;10.93;;;2.72;;
78774;SDS011;68119;43.398;3.676;2024-02-26T14:18:38;21.95;;;5.50;;
78774;SDS011;68119;43.398;3.676;2024-02-26T14:21:12;7.00;;;2.40;;
78774;SDS011;68119;43.398;3.676;2024-02-26T14:23:39;6.22;;;2.50;;
78774;SDS011;68119;43.398;3.676;2024-02-26T14:26:09;20.10;;;4.68;;
78774;SDS011;68119;43.398;3.676;2024-02-26T14:28:38;9.43;;;3.10;;
78774;SDS011;68119;43.398;3.676;2024-02-26T14:31:09;28.48;;;10.68;;
78774;SDS011;68119;43.398;3.676;2024-02-26T14:33:41;7.13;;;2.55;;
78774;SDS011;68119;43.398;3.676;2024-02-26T14:36:10;11.30;;;4.10;;
78774;SDS011;68119;43.398;3.676;2024-02-26T14:38:42;14.23;;;4.25;;
78774;SDS011;68119;43.398;3.676;2024-02-26T14:41:11;88.50;;;31.73;;
78774;SDS011;68119;43.398;3.676;2024-02-26T14:43:41;62.05;;;20.55;;
78774;SDS011;68119;43.398;3.676;2024-02-26T14:46:07;114.72;;;39.28;;
78774;SDS011;68119;43.398;3.676;2024-02-26T14:48:36;104.55;;;35.17;;
78774;SDS011;68119;43.398;3.676;2024-02-26T14:54:19;53.45;;;16.55;;
78774;SDS011;68119;43.398;3.676;2024-02-26T14:56:46;16.92;;;5.13;;
78774;SDS011;68119;43.398;3.676;2024-02-26T14:59:15;37.97;;;11.55;;
78774;SDS011;68119;43.398;3.676;2024-02-26T15:01:47;22.80;;;6.63;;
78774;SDS011;68119;43.398;3.676;2024-02-26T15:04:14;15.98;;;4.57;;
78774;SDS011;68119;43.398;3.676;2024-02-26T15:06:45;12.02;;;3.00;;
78774;SDS011;68119;43.398;3.676;2024-02-26T15:12:06;7.45;;;2.70;;
78774;SDS011;68119;43.398;3.676;2024-02-26T15:14:36;7.78;;;2.55;;
78774;SDS011;68119;43.398;3.676;2024-02-26T15:17:06;8.97;;;2.73;;
78774;SDS011;68119;43.398;3.676;2024-02-26T15:19:41;7.40;;;2.08;;
78774;SDS011;68119;43.398;3.676;2024-02-26T15:22:08;7.95;;;2.40;;
78774;SDS011;68119;43.398;3.676;2024-02-26T15:24:37;18.67;;;9.32;;